Northford, CT

1:56 PM EST on January 31, 2015 (GMT -0500)
Northford | Change Station
CLOSE
Current Station
Personal Weather Station
Location: Northford, CT
Elevation: 187 ft
Nearby Weather Stations
Active Advisory: Winter Storm Watch Active Notice: Public Information Statement

Elev 187 ft 41.41 °N, 72.77 °W | Updated 5 minutes ago

Clear
Clear
20.3 °F
Feels Like 20 °F
N
3.0
Wind Variable Wind from North
Gusts 21.0 mph

Today
High -- | Low -- °F
--% Chance of Precip.
Yesterday
High -- | Low -- °F
Precip. -- in
7:03 AM 5:05 PM
Waxing Gibbous, 91% visible
Pressure 30.02 in
Visibility 10.0 miles
Clouds Clear
Windchill 20 °F
Dew Point -2 °F
Humidity 38%
Rainfall 0.00 in
Snow Depth Not available.
UV 3 out of 12
Pollen .10 out of 12
Air Quality Not available.
Flu Activity Not available.
METAR KMMK 311753Z AUTO 33021G28KT 10SM CLR M07/M21 A3001 RMK AO2 PK WND 32038/1658 SLP164 T10721211 11072 21139 58007 TSNO

More Conditions Fewer Conditions

Pressure 30.02 in
Visibility 10.0 miles
Clouds Clear
Windchill 20 °F
Dew Point -2 °F
Humidity 38%
Rainfall 0.00 in
Snow Depth Not available.
UV 3 out of 12
Pollen .10 out of 12
Air Quality Not available.
Flu Activity Not available.
METAR KMMK 311753Z AUTO 33021G28KT 10SM CLR M07/M21 A3001 RMK AO2 PK WND 32038/1658 SLP164 T10721211 11072 21139 58007 TSNO

More Conditions Fewer Conditions

10-Day Weather Forecast

Almanac

Astronomy

Jan. 31, 2015 Rise Set
Actual Time
Civil Twilight
Nautical Twilight
Astronomical Twilight
Moon
Length of Visible Light
Length of Day
Tomorrow will be .
, % of the Moon is Illuminated

Today's Extremes

State Highs State Lows

Community

WunderPhotos

Upload Photos

1,792,149 photos uploaded!

WunderBlogs® & News

Nearby

Air Quality

  Air Quality AQ Index Pollutant
Not available.

Snow Depth

Station Depth Elevation

Earthquake Activity

City Distance Mag. Time & Date
Minimum magnitude displayed is 2.5.

Coastal Water Temperatures

Place Temperature

Nearby Weather Stations